createdAt,value
2022-11-02T00:04:46.009Z,6.40
2022-11-02T00:11:47.653Z,6.93
2022-11-02T00:18:50.946Z,6.43
2022-11-02T00:25:52.515Z,6.40
2022-11-02T00:32:54.073Z,6.75
2022-11-02T00:39:55.635Z,6.30
2022-11-02T00:46:57.203Z,5.38
2022-11-02T00:53:59.239Z,5.55
2022-11-02T01:01:05.246Z,4.93
2022-11-02T01:08:07.060Z,4.68
2022-11-02T01:15:10.369Z,4.90
2022-11-02T01:22:12.770Z,5.03
2022-11-02T01:29:14.398Z,4.57
2022-11-02T01:36:16.843Z,4.22
2022-11-02T01:43:20.457Z,4.20
2022-11-02T01:50:24.038Z,3.80
2022-11-02T01:57:25.757Z,4.00
2022-11-02T02:04:27.480Z,4.00
2022-11-02T02:11:35.857Z,3.90
2022-11-02T02:18:44.693Z,3.80
2022-11-02T02:26:23.981Z,3.40
2022-11-02T02:33:41.401Z,3.97
2022-11-02T02:40:49.726Z,4.10
2022-11-02T02:48:18.226Z,3.97
2022-11-02T02:55:26.208Z,4.10
2022-11-02T03:02:33.229Z,3.45
2022-11-02T03:09:40.001Z,3.50
2022-11-02T03:17:13.229Z,3.72
2022-11-02T03:24:33.934Z,3.35
2022-11-02T03:31:56.160Z,3.70
2022-11-02T03:39:00.531Z,3.45
2022-11-02T03:46:03.460Z,3.15
2022-11-02T03:53:08.109Z,3.40
2022-11-02T04:00:14.630Z,3.10
2022-11-02T04:07:18.700Z,3.20
2022-11-02T04:14:38.543Z,3.10
2022-11-02T04:22:04.917Z,3.28
2022-11-02T04:29:09.865Z,2.83
2022-11-02T04:36:12.407Z,2.80
2022-11-02T04:43:15.604Z,2.67
2022-11-02T04:50:17.577Z,2.70
2022-11-02T04:57:19.772Z,2.88
2022-11-02T05:04:22.381Z,2.85
2022-11-02T05:11:24.670Z,3.28
2022-11-02T05:18:27.794Z,2.50
2022-11-02T05:25:30.441Z,2.47
2022-11-02T05:32:33.423Z,2.83
2022-11-02T05:39:37.199Z,2.88
2022-11-02T05:46:39.072Z,2.33
2022-11-02T05:53:40.658Z,2.75
2022-11-02T06:00:42.242Z,2.70
2022-11-02T06:07:43.780Z,3.50
2022-11-02T06:14:45.346Z,2.60
2022-11-02T06:21:48.503Z,2.50
2022-11-02T06:28:50.399Z,2.88
2022-11-02T06:35:52.714Z,2.53
2022-11-02T06:43:15.272Z,2.50
2022-11-02T06:50:18.376Z,2.33
2022-11-02T06:57:20.088Z,2.80
2022-11-02T07:04:21.939Z,2.63
2022-11-02T07:11:23.502Z,2.72
2022-11-02T07:18:25.134Z,2.42
2022-11-02T07:25:27.915Z,2.78
2022-11-02T07:32:29.577Z,3.70
2022-11-02T07:39:31.188Z,2.78
2022-11-02T07:46:32.752Z,2.80
2022-11-02T07:53:34.509Z,3.30
2022-11-02T08:00:37.485Z,3.13
2022-11-02T08:07:39.346Z,3.20
2022-11-02T08:14:41.040Z,2.30
2022-11-02T08:21:42.681Z,2.20
2022-11-02T08:28:44.285Z,2.15
2022-11-02T08:35:46.504Z,2.40
2022-11-02T08:42:48.125Z,2.10
2022-11-02T08:49:51.625Z,2.95
2022-11-02T08:56:53.274Z,2.25
2022-11-02T09:03:54.850Z,3.03
2022-11-02T09:11:01.602Z,2.10
2022-11-02T09:18:04.008Z,2.42
2022-11-02T09:25:06.080Z,2.45
2022-11-02T09:32:07.684Z,2.78
2022-11-02T09:39:09.381Z,2.63
2022-11-02T09:46:15.270Z,2.40
2022-11-02T09:53:28.841Z,2.10
2022-11-02T10:00:30.590Z,2.60
2022-11-02T10:07:57.364Z,2.58
2022-11-02T10:23:50.745Z,2.20
2022-11-02T10:30:53.161Z,2.40
2022-11-02T10:38:00.797Z,1.95
2022-11-02T10:45:33.451Z,2.08
2022-11-02T10:52:36.803Z,2.20
2022-11-02T10:59:38.354Z,2.90
2022-11-02T11:06:40.986Z,2.20
2022-11-02T11:21:05.127Z,2.30
2022-11-02T11:28:22.137Z,2.33
2022-11-02T11:35:24.262Z,2.40
2022-11-02T11:42:28.074Z,1.90
2022-11-02T11:49:47.927Z,2.15
2022-11-02T11:57:34.417Z,2.30
2022-11-02T12:04:36.344Z,2.67
2022-11-02T12:11:50.188Z,2.17
2022-11-02T12:18:55.986Z,2.40
2022-11-02T12:26:28.686Z,2.38
2022-11-02T12:34:07.719Z,2.42
2022-11-02T12:41:32.446Z,2.50
2022-11-02T12:49:06.174Z,1.98
2022-11-02T12:56:08.886Z,2.20
2022-11-02T13:03:24.136Z,2.10
2022-11-02T13:10:31.800Z,2.03
2022-11-02T13:17:46.956Z,2.63
2022-11-02T13:24:52.136Z,1.88
2022-11-02T13:31:56.137Z,2.20
2022-11-02T13:39:10.667Z,2.25
2022-11-02T13:46:21.514Z,2.20
2022-11-02T13:53:29.699Z,2.30
2022-11-02T14:00:36.947Z,2.10
2022-11-02T14:07:39.795Z,1.95
2022-11-02T14:14:41.424Z,2.65
2022-11-02T14:22:02.883Z,1.83
2022-11-02T14:29:05.295Z,2.20
2022-11-02T14:36:35.039Z,2.50
2022-11-02T14:44:04.181Z,1.90
2022-11-02T14:51:07.208Z,1.65
2022-11-02T14:58:16.044Z,1.90
2022-11-02T15:05:26.524Z,2.10
2022-11-02T15:12:37.283Z,1.95
2022-11-02T15:19:50.268Z,2.10
2022-11-02T15:26:53.717Z,2.25
2022-11-02T15:33:56.752Z,2.20
2022-11-02T15:41:05.931Z,1.83
2022-11-02T15:48:14.610Z,1.70
2022-11-02T15:55:23.413Z,2.40
2022-11-02T16:02:26.939Z,1.98
2022-11-02T16:09:36.785Z,2.05
2022-11-02T16:16:51.268Z,2.38
2022-11-02T16:23:55.657Z,2.65
2022-11-02T16:31:18.378Z,2.30
2022-11-02T16:38:20.995Z,2.20
2022-11-02T16:45:35.868Z,2.47
2022-11-02T16:52:40.286Z,2.22
2022-11-02T17:00:18.185Z,2.38
2022-11-02T17:07:24.947Z,2.05
2022-11-02T17:14:26.593Z,2.90
2022-11-02T17:21:29.052Z,1.83
2022-11-02T17:28:33.571Z,3.17
2022-11-02T17:35:35.260Z,2.30
2022-11-02T17:42:55.385Z,2.40
2022-11-02T17:49:56.967Z,2.85
2022-11-02T17:56:59.262Z,2.72
2022-11-02T18:04:00.847Z,2.42
2022-11-02T18:11:02.861Z,2.20
2022-11-02T18:18:04.683Z,2.47
2022-11-02T18:25:07.507Z,2.33
2022-11-02T18:32:10.543Z,2.63
2022-11-02T18:39:12.121Z,2.60
2022-11-02T18:46:13.873Z,3.03
2022-11-02T18:53:15.463Z,2.53
2022-11-02T19:00:17.327Z,2.63
2022-11-02T19:07:37.527Z,3.22
2022-11-02T19:14:40.615Z,3.20
2022-11-02T19:21:42.530Z,3.38
2022-11-02T19:28:44.140Z,3.03
2022-11-02T19:35:54.719Z,2.90
2022-11-02T19:42:56.316Z,3.80
2022-11-02T19:49:57.923Z,9.25
2022-11-02T19:56:59.508Z,3.70
2022-11-02T20:04:01.163Z,4.35
2022-11-02T20:11:10.585Z,3.85
2022-11-02T20:18:20.225Z,4.53
2022-11-02T20:25:24.341Z,9.03
2022-11-02T20:32:25.912Z,6.03
2022-11-02T20:39:27.494Z,4.82
2022-11-02T20:46:39.035Z,4.70
2022-11-02T20:53:42.911Z,5.55
2022-11-02T21:00:46.472Z,9.13
2022-11-02T21:07:50.075Z,6.32
2022-11-02T21:14:51.727Z,6.05
2022-11-02T21:21:59.164Z,5.35
2022-11-02T21:29:01.606Z,5.20
2022-11-02T21:36:03.451Z,4.80
2022-11-02T21:43:05.235Z,5.32
2022-11-02T21:50:07.841Z,5.90
2022-11-02T21:57:09.455Z,4.90
2022-11-02T22:04:15.748Z,4.65
2022-11-02T22:11:21.756Z,5.38
2022-11-02T22:18:23.337Z,4.65
2022-11-02T22:25:24.925Z,5.57
2022-11-02T22:32:26.474Z,4.28
2022-11-02T22:39:28.028Z,5.28
2022-11-02T22:46:30.646Z,5.20
2022-11-02T22:53:32.338Z,6.13
2022-11-02T23:00:33.872Z,5.00
2022-11-02T23:07:35.430Z,4.35
2022-11-02T23:14:36.956Z,4.35
2022-11-02T23:21:43.049Z,4.50
2022-11-02T23:29:03.457Z,4.38
2022-11-02T23:36:11.280Z,4.00
2022-11-02T23:43:12.904Z,4.30
2022-11-02T23:50:34.664Z,3.55
2022-11-02T23:57:36.221Z,4.70
